Time;durP1;ratioP1;P1;durP2;ratioP2;P2;SDS_P1;SDS_P2;PMS_P1;PMS_P2;Temp;Humidity;BMP_temperature;BMP_pressure;BME280_temperature;BME280_humidity;BME280_pressure;Samples;Min_cycle;Max_cycle;Signal;HPM_P1;HPM_P2
2023/06/17 00:00:50;;;;;;;4.90;4.50;;;17.60;55.70;;;;;;906320;154;27529;-77
2023/06/17 00:03:16;;;;;;;5.00;4.57;;;17.60;55.80;;;;;;905640;154;27479;-77
2023/06/17 00:05:43;;;;;;;5.93;4.57;;;17.50;55.90;;;;;;905467;154;27465;-77
2023/06/17 00:08:09;;;;;;;5.10;4.63;;;17.50;55.90;;;;;;906004;154;27364;-77
2023/06/17 00:10:36;;;;;;;4.95;4.55;;;17.50;56.00;;;;;;918812;153;27512;-77
2023/06/17 00:13:03;;;;;;;4.87;4.47;;;17.40;56.10;;;;;;934547;151;27473;-77
2023/06/17 00:15:32;;;;;;;4.87;4.47;;;17.40;56.30;;;;;;917571;154;27357;-77
2023/06/17 00:17:56;;;;;;;4.93;4.43;;;17.40;56.30;;;;;;938225;151;28443;-77
2023/06/17 00:20:23;;;;;;;5.40;4.60;;;17.30;56.50;;;;;;934109;150;27512;-77
2023/06/17 00:22:49;;;;;;;5.43;4.73;;;17.30;56.60;;;;;;919331;152;27828;-77
2023/06/17 00:25:15;;;;;;;4.83;4.43;;;17.30;56.80;;;;;;933431;151;27304;-77
2023/06/17 00:27:42;;;;;;;5.00;4.60;;;17.20;56.90;;;;;;938282;151;27392;-77
2023/06/17 00:30:09;;;;;;;4.83;4.43;;;17.20;57.00;;;;;;932776;151;27421;-77
2023/06/17 00:32:35;;;;;;;5.10;4.60;;;17.10;57.00;;;;;;935249;150;27457;-77
2023/06/17 00:35:02;;;;;;;6.97;4.53;;;17.10;57.10;;;;;;920421;153;27387;-77
2023/06/17 00:37:28;;;;;;;6.37;4.83;;;17.10;57.20;;;;;;934231;151;27346;-77
2023/06/17 00:39:55;;;;;;;5.15;4.75;;;17.10;57.30;;;;;;937372;150;27339;-77
2023/06/17 00:42:22;;;;;;;5.13;4.63;;;17.00;57.30;;;;;;936767;151;27402;-77
2023/06/17 00:44:48;;;;;;;5.40;4.90;;;17.00;57.50;;;;;;918384;153;27818;-77
2023/06/17 00:47:15;;;;;;;6.50;5.10;;;16.90;57.60;;;;;;934257;151;27380;-77
2023/06/17 00:49:42;;;;;;;4.80;4.40;;;16.90;57.70;;;;;;933196;150;27432;-77
2023/06/17 00:52:08;;;;;;;5.80;5.28;;;16.90;57.80;;;;;;917028;154;27496;-77
2023/06/17 00:54:37;;;;;;;4.80;4.20;;;16.80;57.80;;;;;;910452;154;27512;-77
2023/06/17 00:57:05;;;;;;;5.30;4.57;;;16.80;58.00;;;;;;915432;153;27486;-77
2023/06/17 00:59:31;;;;;;;5.17;4.67;;;16.80;58.10;;;;;;935975;151;27320;-77
2023/06/17 01:01:57;;;;;;;4.90;4.50;;;16.70;58.20;;;;;;933637;150;27306;-77
2023/06/17 01:04:24;;;;;;;5.10;4.70;;;16.70;58.30;;;;;;919611;153;27419;-78
2023/06/17 01:06:59;;;;;;;5.20;4.67;;;16.60;58.90;;;;;;933767;150;27869;-78
2023/06/17 01:09:23;;;;;;;5.43;5.00;;;16.60;58.50;;;;;;933606;151;27411;-78
2023/06/17 01:11:50;;;;;;;5.50;5.00;;;16.60;58.60;;;;;;935459;151;27334;-78
2023/06/17 01:14:16;;;;;;;5.57;5.07;;;16.50;58.90;;;;;;933426;151;27516;-78
2023/06/17 01:16:43;;;;;;;5.22;4.72;;;16.50;58.90;;;;;;934502;151;27367;-78
2023/06/17 01:19:18;;;;;;;5.10;4.70;;;16.50;59.00;;;;;;935661;150;27483;-78
2023/06/17 01:21:37;;;;;;;6.90;4.80;;;16.50;59.10;;;;;;934507;151;27705;-77
2023/06/17 01:24:03;;;;;;;5.43;4.70;;;16.40;59.10;;;;;;934116;151;27461;-77
2023/06/17 01:26:31;;;;;;;5.50;5.00;;;16.40;59.20;;;;;;933129;151;27362;-77
2023/06/17 01:28:59;;;;;;;7.70;4.87;;;16.40;59.20;;;;;;934936;151;27440;-77
2023/06/17 01:31:24;;;;;;;5.23;4.73;;;16.30;59.30;;;;;;933417;151;27387;-77
2023/06/17 01:33:49;;;;;;;6.07;4.83;;;16.30;59.30;;;;;;932644;151;27458;-78
2023/06/17 01:36:22;;;;;;;5.67;4.83;;;16.30;59.50;;;;;;934964;151;27337;-78
2023/06/17 01:38:48;;;;;;;5.37;4.57;;;16.30;59.60;;;;;;933958;151;27460;-78
2023/06/17 01:41:17;;;;;;;5.57;5.10;;;16.20;59.50;;;;;;928848;151;27414;-78
2023/06/17 01:43:44;;;;;;;5.43;5.00;;;16.20;59.70;;;;;;921677;152;27311;-77
2023/06/17 01:46:13;;;;;;;6.43;5.63;;;16.20;59.80;;;;;;920151;152;27444;-78
2023/06/17 01:48:40;;;;;;;5.57;5.07;;;16.20;60.00;;;;;;902095;155;27435;-77
2023/06/17 01:51:07;;;;;;;6.53;4.97;;;16.10;60.00;;;;;;899137;155;27404;-77
2023/06/17 01:53:33;;;;;;;5.53;5.03;;;16.10;60.10;;;;;;897915;155;27351;-77
2023/06/17 01:56:00;;;;;;;5.23;4.80;;;16.00;60.30;;;;;;898469;155;27792;-76
2023/06/17 01:58:26;;;;;;;5.63;5.13;;;16.00;60.30;;;;;;900346;155;27691;-76
2023/06/17 02:00:53;;;;;;;6.17;5.37;;;15.90;60.40;;;;;;899570;155;27459;-76
2023/06/17 02:03:20;;;;;;;6.00;5.50;;;15.90;60.50;;;;;;899340;155;27419;-76
2023/06/17 02:05:46;;;;;;;6.17;5.53;;;15.90;60.60;;;;;;897117;155;27309;-76
2023/06/17 02:08:14;;;;;;;5.90;5.30;;;15.90;61.80;;;;;;899362;155;27771;-76
2023/06/17 02:10:39;;;;;;;5.80;5.30;;;15.80;60.90;;;;;;900029;155;27518;-76
2023/06/17 02:13:09;;;;;;;6.27;5.67;;;15.90;61.00;;;;;;899456;155;27436;-76
2023/06/17 02:15:33;;;;;;;5.10;4.70;;;15.80;61.00;;;;;;898387;155;27357;-76
2023/06/17 02:18:00;;;;;;;5.00;4.60;;;15.80;61.20;;;;;;897373;154;27368;-76
2023/06/17 02:20:26;;;;;;;5.67;5.17;;;15.80;61.30;;;;;;921728;152;27356;-76
2023/06/17 02:22:52;;;;;;;5.40;5.00;;;15.70;61.30;;;;;;891839;155;27405;-76
2023/06/17 02:25:19;;;;;;;6.17;5.60;;;15.70;61.40;;;;;;891566;155;27514;-74
2023/06/17 02:27:46;;;;;;;5.97;5.47;;;15.70;61.40;;;;;;891206;155;27485;-74
2023/06/17 02:30:12;;;;;;;6.00;5.50;;;15.60;61.50;;;;;;891118;155;27362;-74
2023/06/17 02:32:39;;;;;;;6.00;5.50;;;15.60;61.80;;;;;;918226;154;27507;-74
2023/06/17 02:35:05;;;;;;;6.10;5.60;;;15.60;62.00;;;;;;918435;154;27400;-74
2023/06/17 02:37:32;;;;;;;6.23;5.73;;;15.60;62.20;;;;;;921357;152;27467;-74
2023/06/17 02:39:59;;;;;;;5.90;5.40;;;15.50;62.30;;;;;;892915;156;27390;-74
2023/06/17 02:42:25;;;;;;;6.53;5.40;;;15.50;62.80;;;;;;922997;151;27497;-74
2023/06/17 02:44:52;;;;;;;6.70;5.77;;;15.50;62.80;;;;;;923851;151;27397;-74
2023/06/17 02:47:18;;;;;;;6.47;5.87;;;15.50;63.10;;;;;;912948;155;27391;-74
2023/06/17 02:49:45;;;;;;;6.33;5.47;;;15.50;63.40;;;;;;895903;155;27347;-74
2023/06/17 02:52:12;;;;;;;7.77;5.53;;;15.50;63.40;;;;;;924952;152;27345;-74
2023/06/17 02:54:38;;;;;;;5.83;5.33;;;15.50;63.40;;;;;;925149;152;27373;-74
2023/06/17 02:57:05;;;;;;;5.90;5.40;;;15.50;63.50;;;;;;924697;152;27400;-74
2023/06/17 02:59:33;;;;;;;5.33;4.93;;;15.50;63.40;;;;;;925219;152;27754;-74
2023/06/17 03:01:58;;;;;;;6.00;5.40;;;15.50;63.30;;;;;;913475;154;27429;-74
2023/06/17 03:04:25;;;;;;;5.20;4.80;;;15.50;63.40;;;;;;912032;154;27337;-74
2023/06/17 03:06:53;;;;;;;5.50;5.00;;;15.40;63.20;;;;;;915060;154;27507;-74
2023/06/17 03:09:18;;;;;;;5.57;5.07;;;15.40;63.20;;;;;;915152;154;27460;-74
2023/06/17 03:11:45;;;;;;;6.13;5.33;;;15.40;63.30;;;;;;925238;152;27338;-74
2023/06/17 03:14:12;;;;;;;5.70;5.20;;;15.30;63.30;;;;;;925482;152;27381;-74
2023/06/17 03:16:38;;;;;;;5.90;5.23;;;15.30;63.40;;;;;;924380;152;27435;-74
2023/06/17 03:19:04;;;;;;;5.80;5.00;;;15.20;63.40;;;;;;924334;152;27400;-74
2023/06/17 03:21:32;;;;;;;5.87;4.93;;;15.10;63.60;;;;;;924376;152;27357;-74
2023/06/17 03:23:58;;;;;;;7.30;5.43;;;15.10;63.80;;;;;;890478;157;27348;-74
2023/06/17 03:26:24;;;;;;;5.87;5.33;;;15.00;64.00;;;;;;891882;156;27365;-74
2023/06/17 03:28:50;;;;;;;5.33;4.87;;;15.00;64.10;;;;;;913872;153;27432;-74
2023/06/17 03:31:20;;;;;;;5.47;4.97;;;15.00;64.50;;;;;;926602;152;27362;-75
2023/06/17 03:33:44;;;;;;;5.03;4.63;;;14.90;64.50;;;;;;915097;154;27388;-74
2023/06/17 03:36:11;;;;;;;6.17;5.53;;;14.90;64.60;;;;;;914759;154;27486;-74
2023/06/17 03:38:37;;;;;;;5.87;5.27;;;14.80;64.60;;;;;;911620;154;27405;-76
2023/06/17 03:41:03;;;;;;;5.83;5.27;;;14.80;65.00;;;;;;913957;154;27308;-74
2023/06/17 03:43:30;;;;;;;5.47;4.97;;;14.80;65.30;;;;;;914847;154;27399;-74
2023/06/17 03:45:57;;;;;;;6.07;5.00;;;14.80;65.50;;;;;;921565;151;27353;-74
2023/06/17 03:48:23;;;;;;;5.27;4.80;;;14.80;65.60;;;;;;891060;155;27464;-74
2023/06/17 03:50:50;;;;;;;5.50;5.00;;;14.80;65.70;;;;;;914949;153;27477;-74
2023/06/17 03:53:16;;;;;;;5.87;5.37;;;14.80;65.90;;;;;;917579;154;27502;-74
2023/06/17 03:55:43;;;;;;;7.50;5.67;;;14.90;66.00;;;;;;917184;154;27390;-74
2023/06/17 03:58:14;;;;;;;6.40;5.80;;;14.90;65.10;;;;;;914965;154;27348;-74
2023/06/17 04:00:36;;;;;;;6.83;6.23;;;14.90;66.00;;;;;;917539;153;27390;-74
2023/06/17 04:03:03;;;;;;;6.23;5.63;;;15.00;66.00;;;;;;923166;152;27451;-74
2023/06/17 04:05:31;;;;;;;5.67;5.17;;;15.00;66.00;;;;;;890141;155;27979;-74
2023/06/17 04:07:58;;;;;;;6.00;5.10;;;15.00;66.00;;;;;;891733;155;27450;-74
2023/06/17 04:10:22;;;;;;;6.83;6.10;;;15.10;66.20;;;;;;890470;155;27380;-74
2023/06/17 04:12:49;;;;;;;6.03;5.43;;;15.10;66.20;;;;;;916551;153;27330;-74
2023/06/17 04:15:16;;;;;;;6.43;5.93;;;15.10;66.40;;;;;;915861;154;27405;-74
2023/06/17 04:17:42;;;;;;;6.13;5.53;;;15.20;66.40;;;;;;919205;153;27362;-74
2023/06/17 04:20:12;;;;;;;6.73;6.13;;;15.30;66.50;;;;;;919502;153;27386;-74
2023/06/17 04:22:36;;;;;;;7.60;6.40;;;15.30;66.40;;;;;;916414;154;27447;-74
2023/06/17 04:25:02;;;;;;;6.30;5.63;;;15.40;66.50;;;;;;916221;153;27405;-74
2023/06/17 04:27:29;;;;;;;7.10;5.93;;;15.50;66.70;;;;;;913540;154;27497;-74
2023/06/17 04:29:56;;;;;;;5.90;5.40;;;15.50;66.60;;;;;;907261;153;27407;-74
2023/06/17 04:32:22;;;;;;;6.17;5.60;;;15.60;67.00;;;;;;923660;152;27308;-74
2023/06/17 04:34:48;;;;;;;6.03;5.43;;;15.70;66.70;;;;;;923380;152;27387;-74
2023/06/17 04:37:16;;;;;;;6.27;5.77;;;15.80;66.70;;;;;;909232;155;27379;-74
2023/06/17 04:39:42;;;;;;;6.33;5.73;;;15.90;66.80;;;;;;905017;155;27347;-74
2023/06/17 04:42:09;;;;;;;6.22;5.62;;;16.00;66.80;;;;;;920474;153;27339;-74
2023/06/17 04:44:35;;;;;;;6.33;5.72;;;16.10;66.80;;;;;;919818;153;27484;-74
2023/06/17 04:47:01;;;;;;;6.67;5.80;;;16.30;66.70;;;;;;896990;155;27534;-74
2023/06/17 04:49:28;;;;;;;6.50;5.90;;;16.40;66.70;;;;;;928149;152;27341;-74
2023/06/17 04:51:55;;;;;;;6.20;5.60;;;16.50;66.60;;;;;;927411;152;27398;-74
2023/06/17 04:54:24;;;;;;;6.45;5.90;;;16.70;66.50;;;;;;926282;152;27467;-74
2023/06/17 04:56:48;;;;;;;6.75;5.42;;;16.80;66.30;;;;;;927869;152;27309;-75
2023/06/17 04:59:14;;;;;;;5.97;5.47;;;17.10;67.10;;;;;;928486;152;27482;-74
2023/06/17 05:01:41;;;;;;;5.85;5.33;;;17.40;67.20;;;;;;915463;154;27444;-74
2023/06/17 05:04:07;;;;;;;5.42;4.87;;;17.80;67.90;;;;;;916655;154;27342;-74
2023/06/17 05:06:35;;;;;;;5.78;5.28;;;18.40;68.30;;;;;;916921;154;27330;-74
2023/06/17 05:09:01;;;;;;;5.78;5.12;;;19.00;68.20;;;;;;927571;152;27451;-74
2023/06/17 05:11:27;;;;;;;8.05;4.85;;;19.70;68.00;;;;;;899050;155;27421;-74
2023/06/17 05:13:54;;;;;;;5.87;4.55;;;20.50;67.20;;;;;;897842;155;27365;-74
2023/06/17 05:16:20;;;;;;;5.55;4.42;;;21.30;66.20;;;;;;899164;155;27538;-74
2023/06/17 05:18:47;;;;;;;5.35;4.85;;;22.10;65.00;;;;;;898544;155;27369;-75
2023/06/17 05:21:14;;;;;;;4.87;4.37;;;22.90;63.70;;;;;;897624;155;27401;-74
2023/06/17 05:23:40;;;;;;;4.67;3.92;;;23.80;62.40;;;;;;898049;155;27459;-75
2023/06/17 05:26:07;;;;;;;4.42;4.03;;;24.50;61.00;;;;;;897627;155;27700;-74
2023/06/17 05:28:33;;;;;;;4.40;4.03;;;25.30;59.70;;;;;;899545;155;27420;-74
2023/06/17 05:31:00;;;;;;;3.90;3.60;;;26.00;58.60;;;;;;897667;155;27504;-75
2023/06/17 05:33:26;;;;;;;4.40;4.00;;;26.70;57.50;;;;;;894240;155;27418;-75
2023/06/17 05:35:54;;;;;;;4.25;3.95;;;27.40;57.30;;;;;;897883;155;27426;-75
2023/06/17 05:38:20;;;;;;;3.85;3.55;;;28.00;55.80;;;;;;898156;155;27361;-75
2023/06/17 05:40:46;;;;;;;4.30;3.98;;;28.70;55.20;;;;;;914930;154;27450;-75
2023/06/17 05:43:13;;;;;;;4.72;3.62;;;29.30;54.30;;;;;;913377;154;27498;-75
2023/06/17 05:45:39;;;;;;;3.92;3.33;;;30.00;53.40;;;;;;914465;154;27529;-75
2023/06/17 05:48:06;;;;;;;4.30;3.90;;;30.60;52.30;;;;;;912693;154;27354;-75
2023/06/17 05:50:33;;;;;;;3.52;3.22;;;31.20;51.20;;;;;;914660;154;27322;-75
2023/06/17 05:52:59;;;;;;;3.72;3.42;;;31.70;50.10;;;;;;913665;154;27352;-75
2023/06/17 05:55:26;;;;;;;3.67;3.40;;;32.20;49.20;;;;;;912138;154;27486;-75
2023/06/17 05:57:52;;;;;;;3.22;3.02;;;32.70;48.60;;;;;;913776;154;27373;-75
2023/06/17 06:00:19;;;;;;;3.08;2.87;;;33.10;47.70;;;;;;914306;154;26238;-75
2023/06/17 06:02:46;;;;;;;3.37;3.10;;;33.50;47.10;;;;;;913772;154;27387;-75
2023/06/17 06:05:12;;;;;;;3.35;3.15;;;34.00;46.50;;;;;;914053;154;26313;-75
2023/06/17 06:07:41;;;;;;;3.20;3.00;;;34.40;46.00;;;;;;913808;154;27503;-75
2023/06/17 06:10:06;;;;;;;4.00;3.17;;;34.80;45.30;;;;;;914634;154;26371;-75
2023/06/17 06:12:32;;;;;;;3.02;2.75;;;35.20;44.80;;;;;;912293;154;26269;-75
2023/06/17 06:14:58;;;;;;;3.22;3.02;;;35.60;44.00;;;;;;915024;154;26246;-76
2023/06/17 06:17:25;;;;;;;3.52;3.27;;;36.00;43.50;;;;;;915527;154;26289;-75
2023/06/17 06:19:52;;;;;;;3.00;2.80;;;36.40;42.80;;;;;;914883;154;26351;-75
2023/06/17 06:22:18;;;;;;;3.30;3.10;;;36.80;42.20;;;;;;912637;154;26262;-76
2023/06/17 06:24:45;;;;;;;3.20;2.98;;;37.10;41.60;;;;;;910790;154;26352;-76
2023/06/17 06:27:11;;;;;;;3.40;3.20;;;37.50;41.10;;;;;;913170;154;26416;-75
2023/06/17 06:29:38;;;;;;;3.35;3.05;;;37.90;40.50;;;;;;913840;153;26446;-76
2023/06/17 06:32:05;;;;;;;3.70;3.40;;;38.30;40.10;;;;;;913565;154;26377;-76
2023/06/17 06:34:31;;;;;;;3.20;3.00;;;38.70;39.40;;;;;;914945;154;26386;-76
2023/06/17 06:36:58;;;;;;;3.42;3.12;;;39.00;38.80;;;;;;894220;155;26353;-76
2023/06/17 06:39:24;;;;;;;4.03;2.83;;;39.40;38.30;;;;;;925086;152;26316;-76
2023/06/17 06:41:51;;;;;;;3.35;3.10;;;39.80;37.80;;;;;;906781;156;26351;-76
2023/06/17 06:44:18;;;;;;;2.60;2.42;;;40.10;37.20;;;;;;925374;152;26583;-78
2023/06/17 06:46:44;;;;;;;2.87;2.67;;;40.50;36.80;;;;;;921526;152;26345;-78
2023/06/17 06:49:11;;;;;;;2.90;2.70;;;40.80;36.20;;;;;;921645;152;26304;-78
2023/06/17 06:51:37;;;;;;;2.77;2.58;;;41.10;35.60;;;;;;922435;151;26204;-78
2023/06/17 06:54:04;;;;;;;2.72;2.52;;;41.40;35.10;;;;;;921474;152;26251;-77
2023/06/17 06:56:30;;;;;;;3.47;3.15;;;41.80;34.50;;;;;;903634;153;26291;-77
2023/06/17 06:58:57;;;;;;;2.92;2.72;;;42.10;34.10;;;;;;891030;156;26416;-77
2023/06/17 07:01:26;;;;;;;3.02;2.83;;;42.40;33.50;;;;;;907433;155;26325;-77
2023/06/17 07:03:50;;;;;;;3.10;2.90;;;42.70;33.10;;;;;;916459;154;26293;-78
2023/06/17 07:06:17;;;;;;;3.47;3.10;;;43.00;33.00;;;;;;916738;154;26284;-78
2023/06/17 07:08:43;;;;;;;3.33;3.02;;;43.20;32.50;;;;;;918093;154;26283;-78
2023/06/17 07:11:10;;;;;;;3.33;3.02;;;43.50;32.20;;;;;;916784;153;26405;-78
2023/06/17 07:13:37;;;;;;;3.25;2.92;;;43.80;31.70;;;;;;916189;154;26405;-78
2023/06/17 07:16:04;;;;;;;3.30;3.02;;;44.10;31.30;;;;;;921612;152;26266;-77
2023/06/17 07:18:30;;;;;;;3.02;2.80;;;44.30;30.90;;;;;;921604;152;26266;-78
2023/06/17 07:20:56;;;;;;;3.25;3.02;;;44.50;30.50;;;;;;916088;154;26285;-78
2023/06/17 07:23:26;;;;;;;3.17;2.98;;;44.80;30.00;;;;;;894070;156;26318;-78
2023/06/17 07:25:52;;;;;;;3.08;2.83;;;44.90;29.80;;;;;;925216;151;26236;-78
2023/06/17 07:28:20;;;;;;;2.60;2.40;;;45.20;29.50;;;;;;921888;151;26390;-78
2023/06/17 07:30:45;;;;;;;3.10;2.72;;;45.40;29.30;;;;;;924481;152;26282;-79
2023/06/17 07:33:12;;;;;;;3.10;2.90;;;45.50;29.00;;;;;;921788;152;26308;-78
2023/06/17 07:35:39;;;;;;;2.80;2.60;;;45.70;28.80;;;;;;923848;151;26354;-78
2023/06/17 07:38:05;;;;;;;2.98;2.77;;;45.80;28.70;;;;;;917804;153;26305;-78
2023/06/17 07:40:32;;;;;;;2.72;2.52;;;46.00;28.50;;;;;;914414;154;26300;-79
2023/06/17 07:42:58;;;;;;;2.98;2.40;;;46.20;28.30;;;;;;917331;153;26305;-79
2023/06/17 07:45:25;;;;;;;2.70;2.47;;;46.50;28.10;;;;;;918117;153;26285;-79
2023/06/17 07:47:52;;;;;;;2.67;2.47;;;46.80;27.90;;;;;;916861;154;26293;-79
2023/06/17 07:50:18;;;;;;;2.80;2.60;;;47.10;27.60;;;;;;919186;154;26332;-78
2023/06/17 07:52:45;;;;;;;2.45;2.25;;;47.40;27.30;;;;;;917583;153;26277;-78
2023/06/17 07:55:11;;;;;;;2.92;2.67;;;47.60;27.10;;;;;;918523;153;26408;-79
2023/06/17 07:57:38;;;;;;;2.80;2.60;;;47.90;26.70;;;;;;917450;154;26317;-79
2023/06/17 08:00:09;;;;;;;2.50;2.30;;;48.10;26.40;;;;;;918292;153;26276;-79
2023/06/17 08:02:31;;;;;;;2.42;2.22;;;48.30;26.20;;;;;;917165;154;26269;-77
2023/06/17 08:04:58;;;;;;;2.27;2.17;;;48.50;26.00;;;;;;917364;154;26239;-77
2023/06/17 08:07:25;;;;;;;2.70;2.45;;;48.60;26.10;;;;;;917508;153;26440;-77
2023/06/17 08:09:51;;;;;;;9.68;2.90;;;48.80;25.50;;;;;;917030;153;26410;-77
2023/06/17 08:12:18;;;;;;;2.22;2.12;;;48.90;25.30;;;;;;917494;153;26383;-77
2023/06/17 08:14:44;;;;;;;2.50;2.30;;;49.00;24.80;;;;;;917033;154;26260;-77
2023/06/17 08:17:11;;;;;;;2.55;2.40;;;49.20;25.10;;;;;;917431;154;26338;-77
2023/06/17 08:19:37;;;;;;;2.55;2.37;;;49.30;25.00;;;;;;915877;154;26478;-77
2023/06/17 08:22:04;;;;;;;6.45;2.37;;;49.50;25.00;;;;;;921149;152;26375;-77
2023/06/17 08:24:31;;;;;;;2.20;2.10;;;49.70;24.80;;;;;;921698;152;26261;-77
2023/06/17 08:26:57;;;;;;;2.77;2.40;;;49.80;24.60;;;;;;891043;155;26374;-77
2023/06/17 08:29:25;;;;;;;2.75;2.37;;;50.00;24.50;;;;;;893704;155;26363;-77
2023/06/17 08:31:50;;;;;;;2.70;2.50;;;50.10;24.40;;;;;;921022;152;26373;-77
2023/06/17 08:34:17;;;;;;;2.67;2.47;;;50.20;24.20;;;;;;918327;153;26317;-77
2023/06/17 08:36:44;;;;;;;2.70;2.50;;;50.30;24.20;;;;;;916942;153;26326;-77
2023/06/17 08:39:10;;;;;;;2.85;2.65;;;50.50;24.00;;;;;;917753;153;26257;-77
2023/06/17 08:41:37;;;;;;;2.98;2.50;;;50.50;23.70;;;;;;921954;151;26269;-76
2023/06/17 08:44:03;;;;;;;2.47;2.37;;;50.60;23.70;;;;;;889143;155;26311;-76
2023/06/17 08:46:30;;;;;;;2.50;2.30;;;50.60;23.60;;;;;;891859;155;26288;-76
2023/06/17 08:48:57;;;;;;;4.17;2.40;;;50.60;23.40;;;;;;922688;152;26293;-76
2023/06/17 08:51:23;;;;;;;2.40;2.30;;;50.60;23.20;;;;;;921417;152;26269;-76
2023/06/17 08:53:50;;;;;;;2.92;2.40;;;50.70;23.10;;;;;;916438;153;26317;-76
2023/06/17 08:56:16;;;;;;;2.70;2.50;;;50.80;22.80;;;;;;916283;154;26214;-76
2023/06/17 08:58:43;;;;;;;2.47;2.27;;;50.90;22.90;;;;;;919582;152;26338;-76
2023/06/17 09:01:09;;;;;;;2.33;2.20;;;51.10;22.60;;;;;;907151;155;26352;-76
2023/06/17 09:03:36;;;;;;;2.17;2.08;;;51.20;22.60;;;;;;909917;155;26322;-78
2023/06/17 09:06:03;;;;;;;2.10;1.95;;;51.20;22.50;;;;;;904919;155;26296;-77
2023/06/17 09:08:32;;;;;;;2.30;2.10;;;51.20;22.30;;;;;;920009;151;26333;-77
2023/06/17 09:11:05;;;;;;;3.30;2.42;;;51.20;22.00;;;;;;923596;152;26253;-77
2023/06/17 09:13:31;;;;;;;2.52;2.33;;;51.10;21.80;;;;;;922997;152;26245;-77
2023/06/17 09:15:58;;;;;;;2.70;2.50;;;51.10;21.60;;;;;;919232;154;26267;-77
2023/06/17 09:18:24;;;;;;;2.10;2.00;;;50.90;21.60;;;;;;918825;153;26234;-77
2023/06/17 09:20:55;;;;;;;3.00;2.40;;;50.60;21.60;;;;;;917128;154;26277;-77
2023/06/17 09:23:20;;;;;;;2.60;2.40;;;50.50;21.80;;;;;;916443;153;26315;-77
2023/06/17 09:25:47;;;;;;;2.30;2.15;;;50.40;21.80;;;;;;916516;153;26476;-78
2023/06/17 09:28:14;;;;;;;2.50;2.30;;;50.30;21.80;;;;;;915868;153;26437;-79
2023/06/17 09:30:43;;;;;;;2.80;2.10;;;50.20;21.50;;;;;;918355;154;26387;-79
2023/06/17 09:33:07;;;;;;;3.42;2.42;;;50.10;21.50;;;;;;915174;154;26380;-79
2023/06/17 09:35:33;;;;;;;4.22;2.25;;;50.00;21.50;;;;;;915405;153;26389;-79
2023/06/17 09:38:00;;;;;;;2.40;2.20;;;49.80;21.50;;;;;;918148;154;26317;-79
2023/06/17 09:40:30;;;;;;;3.02;2.75;;;49.70;21.30;;;;;;914797;154;26283;-79
2023/06/17 09:42:56;;;;;;;2.60;2.40;;;49.50;21.20;;;;;;917658;154;26262;-79
2023/06/17 09:45:26;;;;;;;6.17;2.40;;;49.50;21.50;;;;;;921651;152;26339;-79
2023/06/17 09:47:55;;;;;;;4.00;2.55;;;49.50;21.20;;;;;;910538;152;26237;-79
2023/06/17 09:50:22;;;;;;;2.60;2.42;;;49.40;21.30;;;;;;892010;159;26259;-79
2023/06/17 09:52:52;;;;;;;2.98;2.77;;;49.30;21.30;;;;;;890385;156;26423;-79
2023/06/17 09:55:15;;;;;;;2.50;2.27;;;49.30;21.40;;;;;;893104;156;26759;-79
2023/06/17 09:57:41;;;;;;;3.17;2.40;;;49.00;21.10;;;;;;892337;156;26395;-79
2023/06/17 10:00:13;;;;;;;2.90;2.70;;;48.80;21.20;;;;;;892084;157;26417;-79
2023/06/17 10:02:37;;;;;;;2.70;2.50;;;48.50;21.10;;;;;;893504;157;26227;-79
2023/06/17 10:05:04;;;;;;;2.27;2.17;;;48.00;20.80;;;;;;894233;156;26376;-79
2023/06/17 10:07:30;;;;;;;2.47;2.27;;;47.60;20.90;;;;;;891197;156;26416;-79
2023/06/17 10:09:57;;;;;;;3.10;2.80;;;47.10;20.90;;;;;;892809;156;26327;-79
2023/06/17 10:12:23;;;;;;;3.27;3.05;;;46.50;20.90;;;;;;893551;156;26264;-79
2023/06/17 10:14:50;;;;;;;3.22;3.02;;;46.00;21.10;;;;;;893079;156;26311;-79
2023/06/17 10:17:17;;;;;;;3.17;2.95;;;45.50;21.20;;;;;;903286;156;26459;-79
2023/06/17 10:19:43;;;;;;;3.17;2.98;;;45.00;21.30;;;;;;908876;155;26223;-79
2023/06/17 10:22:10;;;;;;;3.33;3.12;;;44.50;21.60;;;;;;924806;151;26301;-79
2023/06/17 10:24:36;;;;;;;3.10;2.90;;;44.00;21.60;;;;;;924171;152;26401;-79
2023/06/17 10:27:03;;;;;;;4.30;2.95;;;43.50;21.90;;;;;;908262;155;26302;-79
2023/06/17 10:29:30;;;;;;;3.27;3.08;;;43.10;22.00;;;;;;912073;154;26344;-79
2023/06/17 10:31:56;;;;;;;3.30;3.10;;;42.60;22.00;;;;;;913410;154;27423;-78
2023/06/17 10:34:23;;;;;;;3.30;3.00;;;42.20;22.10;;;;;;909504;155;26364;-79
2023/06/17 10:36:52;;;;;;;3.47;3.17;;;41.70;22.10;;;;;;909093;155;26358;-79
2023/06/17 10:39:18;;;;;;;3.27;3.08;;;41.20;22.30;;;;;;913897;155;26296;-79
2023/06/17 10:41:49;;;;;;;4.08;3.22;;;40.80;22.60;;;;;;925432;152;26221;-79
2023/06/17 10:44:33;;;;;;;3.20;3.00;;;40.40;22.80;;;;;;892303;157;27521;-79
2023/06/17 10:46:59;;;;;;;3.58;3.27;;;40.00;23.10;;;;;;893120;156;26421;-79
2023/06/17 10:49:26;;;;;;;3.52;3.22;;;39.60;23.10;;;;;;891084;155;27542;-76
2023/06/17 10:51:58;;;;;;;3.75;3.12;;;39.40;23.30;;;;;;891472;155;26325;-76
2023/06/17 10:54:31;;;;;;;4.22;3.60;;;39.10;23.60;;;;;;911531;154;26416;-76
2023/06/17 10:56:57;;;;;;;3.27;2.98;;;38.90;23.70;;;;;;920993;152;26289;-76
2023/06/17 10:59:27;;;;;;;3.67;3.30;;;38.70;24.00;;;;;;911727;154;26426;-76
2023/06/17 11:01:53;;;;;;;4.35;3.40;;;38.60;24.10;;;;;;922297;153;27281;-76
2023/06/17 11:04:21;;;;;;;3.65;3.33;;;38.50;24.10;;;;;;921552;152;26281;-74
2023/06/17 11:06:46;;;;;;;3.70;3.40;;;38.40;24.40;;;;;;922212;152;27389;-76
2023/06/17 11:09:13;;;;;;;3.67;3.37;;;38.20;24.50;;;;;;914020;154;27477;-76
2023/06/17 11:11:41;;;;;;;3.98;3.58;;;38.10;24.30;;;;;;923509;152;26233;-76
2023/06/17 11:14:06;;;;;;;6.90;3.60;;;37.90;24.20;;;;;;923806;152;27449;-76
2023/06/17 11:16:33;;;;;;;3.72;3.42;;;37.60;24.20;;;;;;902841;156;27363;-76
2023/06/17 11:18:59;;;;;;;4.05;3.65;;;37.40;24.50;;;;;;923556;152;27391;-76
2023/06/17 11:21:26;;;;;;;4.42;3.65;;;37.10;24.60;;;;;;924075;152;27391;-75
2023/06/17 11:23:53;;;;;;;4.05;3.65;;;36.90;24.80;;;;;;923860;152;27475;-75
2023/06/17 11:26:19;;;;;;;3.90;3.60;;;36.70;25.00;;;;;;922697;153;27353;-75
2023/06/17 11:28:46;;;;;;;3.95;3.58;;;36.50;25.00;;;;;;912435;154;26460;-75
2023/06/17 11:31:12;;;;;;;3.67;3.40;;;36.40;25.20;;;;;;913467;154;27507;-75
2023/06/17 11:33:40;;;;;;;4.37;3.50;;;36.30;25.50;;;;;;911550;154;27934;-75
2023/06/17 11:36:09;;;;;;;4.03;3.62;;;36.30;25.50;;;;;;911664;154;27466;-75
2023/06/17 11:38:32;;;;;;;3.95;3.55;;;36.20;25.60;;;;;;909424;155;27399;-75
2023/06/17 11:40:59;;;;;;;3.52;3.20;;;36.20;25.60;;;;;;902150;156;26298;-75
2023/06/17 11:43:28;;;;;;;3.90;3.52;;;36.20;25.70;;;;;;922080;153;27455;-75
2023/06/17 11:45:58;;;;;;;3.90;3.60;;;36.30;25.80;;;;;;923866;152;27331;-75
2023/06/17 11:48:29;;;;;;;3.65;3.33;;;36.30;25.70;;;;;;925010;152;27495;-75
2023/06/17 11:50:57;;;;;;;3.52;3.22;;;36.20;25.70;;;;;;903659;156;27387;-75
2023/06/17 11:53:36;;;;;;;3.27;3.08;;;36.20;25.70;;;;;;930296;151;27435;-75
2023/06/17 11:56:02;;;;;;;3.67;3.45;;;36.00;25.00;;;;;;936070;151;27358;-75
2023/06/17 11:58:28;;;;;;;3.65;3.33;;;35.90;25.60;;;;;;939672;151;27329;-76
2023/06/17 12:00:54;;;;;;;3.52;3.30;;;35.80;25.70;;;;;;937913;151;27367;-76
2023/06/17 12:03:21;;;;;;;5.92;3.58;;;35.70;25.80;;;;;;931596;151;27361;-76
2023/06/17 12:05:47;;;;;;;3.95;3.60;;;35.50;25.70;;;;;;937603;151;27348;-76
2023/06/17 12:08:16;;;;;;;3.52;3.30;;;35.30;25.90;;;;;;938026;151;27270;-76
2023/06/17 12:10:41;;;;;;;3.77;3.30;;;35.10;26.10;;;;;;935410;151;27442;-76
2023/06/17 12:13:07;;;;;;;4.17;3.87;;;34.90;26.50;;;;;;936601;151;27393;-76
2023/06/17 12:15:34;;;;;;;4.05;3.47;;;34.80;26.50;;;;;;937074;150;27336;-76
2023/06/17 12:18:10;;;;;;;3.55;3.25;;;34.60;26.80;;;;;;906816;154;27350;-76
2023/06/17 12:20:36;;;;;;;4.40;3.60;;;34.40;26.60;;;;;;939006;151;27348;-75
2023/06/17 12:23:02;;;;;;;3.70;3.40;;;34.20;26.50;;;;;;936971;151;27448;-76
2023/06/17 12:25:29;;;;;;;3.90;3.20;;;34.10;26.50;;;;;;936154;151;27449;-76
2023/06/17 12:27:55;;;;;;;3.62;3.33;;;33.90;26.70;;;;;;935762;151;27344;-76
2023/06/17 12:30:22;;;;;;;3.50;3.20;;;33.80;26.90;;;;;;936839;151;27293;-76
2023/06/17 12:32:50;;;;;;;3.55;3.12;;;33.70;27.00;;;;;;920679;153;27399;-76
2023/06/17 12:35:16;;;;;;;3.25;3.05;;;33.60;27.10;;;;;;912946;154;27489;-76
2023/06/17 12:37:42;;;;;;;3.10;2.90;;;33.50;27.20;;;;;;910250;154;27396;-76
2023/06/17 12:40:09;;;;;;;4.22;3.17;;;33.40;27.30;;;;;;937365;151;27332;-76
2023/06/17 12:42:36;;;;;;;3.37;3.17;;;33.30;27.40;;;;;;937682;151;27359;-76
2023/06/17 12:45:02;;;;;;;3.15;2.95;;;33.30;27.50;;;;;;937160;151;27478;-76